createdAt,value
2022-09-25T00:04:49.720Z,113.40
2022-09-25T00:09:45.945Z,116.80
2022-09-25T00:14:42.141Z,110.35
2022-09-25T00:19:51.696Z,112.05
2022-09-25T00:24:48.580Z,117.35
2022-09-25T00:29:45.264Z,114.57
2022-09-25T00:34:41.505Z,111.80
2022-09-25T00:39:37.691Z,116.22
2022-09-25T00:44:45.923Z,115.10
2022-09-25T00:49:42.522Z,115.10
2022-09-25T00:54:41.208Z,115.40
2022-09-25T00:59:39.766Z,114.82
2022-09-25T01:04:37.337Z,117.35
2022-09-25T01:09:33.678Z,113.65
2022-09-25T01:14:29.989Z,115.40
2022-09-25T01:19:36.469Z,111.25
2022-09-25T01:24:35.631Z,114.10
2022-09-25T01:29:51.344Z,112.65
2022-09-25T01:35:06.499Z,112.13
2022-09-25T01:40:15.011Z,115.70
2022-09-25T01:45:16.588Z,113.38
2022-09-25T01:50:16.052Z,112.82
2022-09-25T01:55:15.165Z,115.30
2022-09-25T02:00:15.723Z,115.80
2022-09-25T02:05:18.856Z,115.32
2022-09-25T02:10:19.064Z,109.80
2022-09-25T02:15:35.669Z,109.93
2022-09-25T02:20:32.992Z,112.05
2022-09-25T02:25:37.490Z,113.95
2022-09-25T02:30:33.963Z,112.60
2022-09-25T02:35:31.236Z,113.13
2022-09-25T02:40:36.291Z,109.72
2022-09-25T02:45:51.257Z,109.35
2022-09-25T02:50:54.407Z,105.35
2022-09-25T02:55:53.403Z,106.03
2022-09-25T03:00:51.565Z,105.53
2022-09-25T03:05:49.106Z,104.70
2022-09-25T03:10:46.515Z,105.05
2022-09-25T03:15:44.859Z,107.20
2022-09-25T03:20:41.110Z,108.43
2022-09-25T03:25:37.967Z,109.75
2022-09-25T03:30:34.210Z,111.53
2022-09-25T03:35:30.503Z,111.60
2022-09-25T03:40:26.773Z,110.88
2022-09-25T03:45:23.084Z,111.18
2022-09-25T03:50:19.405Z,115.82
2022-09-25T03:55:15.650Z,114.03
2022-09-25T04:00:12.134Z,113.22
2022-09-25T04:05:09.359Z,111.68
2022-09-25T04:10:05.788Z,113.60
2022-09-25T04:15:02.122Z,111.22
2022-09-25T04:19:58.325Z,113.82
2022-09-25T04:24:55.635Z,116.93
2022-09-25T04:29:51.858Z,114.15
2022-09-25T04:34:48.067Z,112.05
2022-09-25T04:39:44.275Z,113.18
2022-09-25T04:44:40.493Z,113.60
2022-09-25T04:49:38.967Z,117.45
2022-09-25T04:54:35.676Z,111.78
2022-09-25T04:59:32.369Z,109.55
2022-09-25T05:04:28.885Z,109.57
2022-09-25T05:09:25.219Z,111.05
2022-09-25T05:14:21.485Z,108.53
2022-09-25T05:19:17.879Z,109.00
2022-09-25T05:24:14.135Z,109.05
2022-09-25T05:29:10.909Z,107.30
2022-09-25T05:34:08.979Z,107.35
2022-09-25T05:39:05.189Z,110.93
2022-09-25T05:44:06.567Z,111.38
2022-09-25T05:49:03.069Z,111.75
2022-09-25T05:54:00.236Z,111.15
2022-09-25T05:58:58.476Z,112.78
2022-09-25T06:03:54.673Z,112.00
2022-09-25T06:08:53.218Z,111.88
2022-09-25T06:13:54.250Z,110.80
2022-09-25T06:18:51.092Z,110.47
2022-09-25T06:23:48.576Z,113.35
2022-09-25T06:28:44.804Z,116.90
2022-09-25T06:33:41.909Z,112.43
2022-09-25T06:38:38.138Z,114.40
2022-09-25T06:43:34.445Z,114.90
2022-09-25T06:48:30.696Z,111.22
2022-09-25T06:53:26.915Z,114.72
2022-09-25T06:58:23.826Z,111.70
2022-09-25T07:03:39.035Z,112.22
2022-09-25T07:08:35.267Z,115.45
2022-09-25T07:13:33.367Z,112.72
2022-09-25T07:18:30.134Z,111.15
2022-09-25T07:23:26.342Z,110.82
2022-09-25T07:28:22.536Z,111.72
2022-09-25T07:33:19.123Z,112.55
2022-09-25T07:38:15.584Z,115.55
2022-09-25T07:43:11.898Z,112.82
2022-09-25T07:48:08.886Z,107.10
2022-09-25T07:53:05.076Z,110.15
2022-09-25T07:58:01.282Z,103.75
2022-09-25T08:02:58.744Z,104.35
2022-09-25T08:07:55.106Z,99.28
2022-09-25T08:12:51.578Z,89.43
2022-09-25T08:17:47.792Z,87.85
2022-09-25T08:22:44.171Z,89.93
2022-09-25T08:27:40.876Z,90.70
2022-09-25T08:32:37.275Z,91.07
2022-09-25T08:37:33.510Z,90.32
2022-09-25T08:42:32.967Z,86.43
2022-09-25T08:47:47.973Z,88.43
2022-09-25T08:52:45.686Z,90.05
2022-09-25T08:57:44.001Z,90.40
2022-09-25T09:02:42.498Z,92.13
2022-09-25T09:07:40.096Z,91.50
2022-09-25T09:12:39.578Z,90.60
2022-09-25T09:17:40.373Z,91.50
2022-09-25T09:22:39.796Z,93.88
2022-09-25T09:27:36.201Z,88.97
2022-09-25T09:32:32.500Z,87.38
2022-09-25T09:37:45.336Z,89.93
2022-09-25T09:42:44.516Z,89.20
2022-09-25T09:48:01.695Z,87.22
2022-09-25T09:53:01.640Z,92.03
2022-09-25T09:58:00.239Z,94.82
2022-09-25T10:03:01.170Z,90.25
2022-09-25T10:07:57.619Z,86.75
2022-09-25T10:12:54.404Z,89.25
2022-09-25T10:17:50.752Z,90.72
2022-09-25T10:22:47.315Z,85.72
2022-09-25T10:27:48.869Z,85.38
2022-09-25T10:33:01.805Z,88.40
2022-09-25T10:38:00.236Z,90.70
2022-09-25T10:43:07.023Z,93.65
2022-09-25T10:48:41.954Z,87.30
2022-09-25T10:53:38.306Z,82.30
2022-09-25T10:58:34.743Z,85.97
2022-09-25T11:03:32.115Z,93.22
2022-09-25T11:08:32.559Z,84.85
2022-09-25T11:13:36.703Z,88.25
2022-09-25T11:18:45.020Z,88.50
2022-09-25T11:23:43.305Z,92.07
2022-09-25T11:29:02.905Z,93.45
2022-09-25T11:34:00.168Z,92.60
2022-09-25T11:39:18.539Z,90.68
2022-09-25T11:44:23.899Z,95.65
2022-09-25T11:49:22.439Z,97.00
2022-09-25T11:54:35.040Z,92.10
2022-09-25T11:59:57.013Z,97.57
2022-09-25T12:05:09.373Z,84.10
2022-09-25T12:10:12.231Z,76.27
2022-09-25T12:15:24.012Z,79.10
2022-09-25T12:20:26.303Z,80.95
2022-09-25T12:25:41.654Z,89.38
2022-09-25T12:30:46.899Z,91.65
2022-09-25T12:35:43.134Z,89.82
2022-09-25T12:40:43.490Z,85.80
2022-09-25T12:45:43.827Z,87.65
2022-09-25T12:50:48.041Z,89.57
2022-09-25T12:55:48.066Z,96.82
2022-09-25T13:00:46.398Z,99.47
2022-09-25T13:05:56.065Z,90.30
2022-09-25T13:10:53.756Z,95.95
2022-09-25T13:15:52.176Z,87.82
2022-09-25T13:20:49.524Z,90.05
2022-09-25T13:25:47.436Z,87.18
2022-09-25T13:30:56.786Z,84.95
2022-09-25T13:36:11.776Z,83.80
2022-09-25T13:41:11.620Z,84.00
2022-09-25T13:46:21.504Z,79.10
2022-09-25T13:51:20.675Z,73.30
2022-09-25T13:56:21.431Z,72.60
2022-09-25T14:01:33.309Z,73.38
2022-09-25T14:06:38.212Z,64.15
2022-09-25T14:11:37.807Z,66.22
2022-09-25T14:16:36.559Z,73.63
2022-09-25T14:21:36.031Z,75.53
2022-09-25T14:26:32.230Z,76.45
2022-09-25T14:31:34.967Z,74.07
2022-09-25T14:36:36.673Z,74.55
2022-09-25T14:41:43.922Z,74.47
2022-09-25T14:46:40.395Z,62.13
2022-09-25T14:51:40.722Z,66.35
2022-09-25T14:56:37.391Z,69.75
2022-09-25T15:01:34.283Z,77.43
2022-09-25T15:06:31.757Z,56.78
2022-09-25T15:11:37.806Z,47.90
2022-09-25T15:16:55.336Z,41.75
2022-09-25T15:21:52.173Z,34.05
2022-09-25T15:26:50.347Z,29.42
2022-09-25T15:31:51.153Z,20.70
2022-09-25T15:36:47.615Z,21.08
2022-09-25T15:41:44.209Z,20.77
2022-09-25T15:46:45.148Z,20.73
2022-09-25T15:51:49.313Z,18.23
2022-09-25T15:56:50.616Z,16.92
2022-09-25T16:02:06.309Z,16.50
2022-09-25T16:07:19.813Z,16.60
2022-09-25T16:12:19.206Z,12.65
2022-09-25T16:17:17.085Z,10.52
2022-09-25T16:22:23.193Z,10.35
2022-09-25T16:27:27.440Z,10.13
2022-09-25T16:32:23.897Z,13.00
2022-09-25T16:37:21.617Z,11.68
2022-09-25T16:42:26.773Z,11.52
2022-09-25T16:47:28.161Z,15.25
2022-09-25T16:52:25.908Z,17.67
2022-09-25T16:57:23.165Z,19.80
2022-09-25T17:02:25.582Z,20.08
2022-09-25T17:07:22.167Z,21.25
2022-09-25T17:12:20.289Z,21.98
2022-09-25T17:17:18.045Z,26.77
2022-09-25T17:22:14.578Z,25.02
2022-09-25T17:27:14.650Z,29.90
2022-09-25T17:32:17.639Z,33.28
2022-09-25T17:37:14.050Z,32.22
2022-09-25T17:42:10.343Z,28.70
2022-09-25T17:47:08.280Z,28.20
2022-09-25T17:52:04.973Z,25.88
2022-09-25T17:57:01.142Z,24.92
2022-09-25T18:01:59.505Z,29.48
2022-09-25T18:06:56.652Z,23.00
2022-09-25T18:11:53.047Z,24.88
2022-09-25T18:16:49.439Z,23.92
2022-09-25T18:22:04.293Z,25.75
2022-09-25T18:27:00.565Z,29.92
2022-09-25T18:31:56.873Z,33.42
2022-09-25T18:36:53.057Z,33.13
2022-09-25T18:41:50.348Z,36.45
2022-09-25T18:46:46.573Z,42.60
2022-09-25T18:51:42.930Z,45.30
2022-09-25T18:56:39.136Z,45.92
2022-09-25T19:01:35.703Z,46.03
2022-09-25T19:06:32.288Z,46.95
2022-09-25T19:11:28.514Z,46.70
2022-09-25T19:16:24.849Z,48.97
2022-09-25T19:21:22.254Z,48.17
2022-09-25T19:26:20.803Z,54.60
2022-09-25T19:31:18.296Z,49.80
2022-09-25T19:36:19.252Z,51.05
2022-09-25T19:41:21.764Z,53.70
2022-09-25T19:46:19.671Z,51.13
2022-09-25T19:51:17.191Z,50.05
2022-09-25T19:56:13.805Z,55.22
2022-09-25T20:01:14.072Z,54.20
2022-09-25T20:06:10.593Z,58.72
2022-09-25T20:11:20.570Z,59.13
2022-09-25T20:16:18.569Z,55.00
2022-09-25T20:21:17.345Z,53.15
2022-09-25T20:26:15.556Z,55.20
2022-09-25T20:31:13.890Z,54.03
2022-09-25T20:36:11.367Z,55.22
2022-09-25T20:41:11.396Z,58.42
2022-09-25T20:46:09.606Z,63.72
2022-09-25T20:51:06.670Z,56.47
2022-09-25T20:56:03.829Z,63.80
2022-09-25T21:01:04.902Z,57.92
2022-09-25T21:06:01.854Z,60.17
2022-09-25T21:11:00.271Z,57.80
2022-09-25T21:16:10.112Z,59.50
2022-09-25T21:21:07.980Z,57.20
2022-09-25T21:26:10.167Z,55.30
2022-09-25T21:31:08.668Z,56.53
2022-09-25T21:36:05.397Z,59.95
2022-09-25T21:41:03.483Z,57.95
2022-09-25T21:46:00.678Z,59.20
2022-09-25T21:50:58.059Z,60.97
2022-09-25T21:56:07.585Z,58.80
2022-09-25T22:01:05.414Z,59.03
2022-09-25T22:06:02.943Z,55.92
2022-09-25T22:10:59.958Z,59.88
2022-09-25T22:16:03.219Z,56.65
2022-09-25T22:20:59.443Z,64.20
2022-09-25T22:25:55.626Z,63.33
2022-09-25T22:30:51.889Z,64.85
2022-09-25T22:35:48.223Z,69.93
2022-09-25T22:40:44.473Z,67.65
2022-09-25T22:45:47.686Z,71.03
2022-09-25T22:50:52.239Z,68.47
2022-09-25T22:55:48.816Z,69.70
2022-09-25T23:00:47.094Z,72.70
2022-09-25T23:05:43.347Z,70.28
2022-09-25T23:11:05.555Z,72.65
2022-09-25T23:15:56.392Z,71.70
2022-09-25T23:20:53.378Z,77.32
2022-09-25T23:25:49.596Z,76.15
2022-09-25T23:30:45.845Z,81.57
2022-09-25T23:35:42.112Z,76.25
2022-09-25T23:40:38.430Z,84.32
2022-09-25T23:45:34.926Z,79.47
2022-09-25T23:50:31.158Z,80.90
2022-09-25T23:55:27.415Z,80.25
